Time;durP1;ratioP1;P1;durP2;ratioP2;P2;SDS_P1;SDS_P2;PMS_P1;PMS_P2;Temp;Humidity;BMP_temperature;BMP_pressure;BME280_temperature;BME280_humidity;BME280_pressure;Samples;Min_cycle;Max_cycle;Signal;HPM_P1;HPM_P2
2023/01/16 00:01:50;;;;;;;2.63;0.57;;;;;;;;;;4936462;29;20431;-65
2023/01/16 00:04:16;;;;;;;1.53;0.80;;;;;;;;;;4936127;29;20424;-65
2023/01/16 00:06:42;;;;;;;0.60;0.60;;;;;;;;;;4936152;29;20821;-65
2023/01/16 00:09:08;;;;;;;0.50;0.50;;;;;;;;;;4936338;29;20522;-65
2023/01/16 00:11:34;;;;;;;0.60;0.60;;;;;;;;;;4935926;29;20467;-65
2023/01/16 00:14:00;;;;;;;0.53;0.53;;;;;;;;;;4936050;29;20901;-65
2023/01/16 00:16:26;;;;;;;4.23;0.47;;;;;;;;;;4936297;29;20424;-65
2023/01/16 00:18:52;;;;;;;3.00;0.57;;;;;;;;;;4936469;29;20420;-65
2023/01/16 00:21:19;;;;;;;1.73;0.83;;;;;;;;;;4935936;29;20912;-65
2023/01/16 00:23:45;;;;;;;0.40;0.40;;;;;;;;;;4936485;29;20420;-65
2023/01/16 00:26:12;;;;;;;0.50;0.50;;;;;;;;;;4936108;29;20792;-65
2023/01/16 00:28:38;;;;;;;1.40;0.53;;;;;;;;;;4935727;29;20420;-65
2023/01/16 00:31:05;;;;;;;2.10;0.80;;;;;;;;;;4936053;29;20566;-65
2023/01/16 00:33:31;;;;;;;4.00;0.60;;;;;;;;;;4936062;29;20450;-65
2023/01/16 00:35:57;;;;;;;0.97;0.57;;;;;;;;;;4935693;29;20854;-65
2023/01/16 00:38:23;;;;;;;0.73;0.70;;;;;;;;;;4936267;29;20439;-65
2023/01/16 00:40:49;;;;;;;0.30;0.30;;;;;;;;;;4935957;29;20502;-66
2023/01/16 00:43:15;;;;;;;1.33;0.70;;;;;;;;;;4935782;29;20760;-66
2023/01/16 00:45:42;;;;;;;0.70;0.50;;;;;;;;;;4935708;29;20516;-65
2023/01/16 00:48:08;;;;;;;1.40;0.70;;;;;;;;;;4918512;29;20472;-65
2023/01/16 00:50:34;;;;;;;1.90;0.50;;;;;;;;;;4935554;29;20916;-66
2023/01/16 00:53:00;;;;;;;1.23;0.50;;;;;;;;;;4936125;29;20426;-65
2023/01/16 00:55:26;;;;;;;3.73;0.87;;;;;;;;;;4935606;29;20951;-66
2023/01/16 00:57:52;;;;;;;1.33;0.60;;;;;;;;;;4936278;29;20452;-65
2023/01/16 01:00:20;;;;;;;5.37;1.27;;;;;;;;;;4935517;29;20426;-65
2023/01/16 01:02:47;;;;;;;0.70;0.50;;;;;;;;;;4935807;29;20424;-65
2023/01/16 01:05:13;;;;;;;4.37;1.20;;;;;;;;;;4935559;29;20561;-65
2023/01/16 01:07:39;;;;;;;1.70;0.47;;;;;;;;;;4935368;29;20475;-65
2023/01/16 01:10:05;;;;;;;1.27;0.77;;;;;;;;;;4935599;29;20535;-65
2023/01/16 01:12:31;;;;;;;0.53;0.53;;;;;;;;;;4935412;29;20427;-65
2023/01/16 01:14:57;;;;;;;0.50;0.50;;;;;;;;;;4935450;29;20423;-65
2023/01/16 01:17:23;;;;;;;5.23;0.80;;;;;;;;;;4936124;29;20412;-65
2023/01/16 01:19:49;;;;;;;0.63;0.63;;;;;;;;;;4937482;29;20782;-65
2023/01/16 01:22:15;;;;;;;0.50;0.50;;;;;;;;;;4939054;29;20452;-65
2023/01/16 01:24:41;;;;;;;0.80;0.67;;;;;;;;;;4939306;29;20416;-66
2023/01/16 01:27:07;;;;;;;0.87;0.83;;;;;;;;;;4938933;29;20510;-66
2023/01/16 01:29:33;;;;;;;0.30;0.30;;;;;;;;;;4938846;29;20415;-65
2023/01/16 01:32:00;;;;;;;0.80;0.50;;;;;;;;;;4939177;29;20435;-65
2023/01/16 01:34:26;;;;;;;0.80;0.80;;;;;;;;;;4939087;29;20777;-65
2023/01/16 01:36:52;;;;;;;0.47;0.47;;;;;;;;;;4939105;29;20447;-65
2023/01/16 01:39:18;;;;;;;0.47;0.47;;;;;;;;;;4938777;29;20896;-65
2023/01/16 01:41:44;;;;;;;0.80;0.60;;;;;;;;;;4939711;29;20427;-65
2023/01/16 01:44:28;;;;;;;2.40;0.50;;;;;;;;;;4938681;29;20953;-65
2023/01/16 01:46:54;;;;;;;0.40;0.40;;;;;;;;;;4938908;29;20432;-65
2023/01/16 01:49:26;;;;;;;1.03;0.93;;;;;;;;;;4938958;29;20424;-65
2023/01/16 01:51:55;;;;;;;1.20;0.80;;;;;;;;;;4938777;29;20438;-66
2023/01/16 01:54:23;;;;;;;0.50;0.50;;;;;;;;;;4939032;29;20498;-66
2023/01/16 01:56:53;;;;;;;2.63;2.20;;;;;;;;;;4938321;29;21056;-65
2023/01/16 01:59:24;;;;;;;1.43;1.33;;;;;;;;;;4938399;29;20412;-65
2023/01/16 02:01:50;;;;;;;1.00;1.00;;;;;;;;;;4938649;29;20486;-65
2023/01/16 02:04:18;;;;;;;0.50;0.50;;;;;;;;;;4937933;29;20510;-65
2023/01/16 02:06:49;;;;;;;2.83;0.63;;;;;;;;;;4938184;29;20470;-65
2023/01/16 02:09:15;;;;;;;0.60;0.60;;;;;;;;;;4938527;29;20407;-65
2023/01/16 02:11:48;;;;;;;8.50;1.83;;;;;;;;;;4938133;29;20475;-65
2023/01/16 02:14:15;;;;;;;1.27;0.50;;;;;;;;;;4938261;29;20427;-65
2023/01/16 02:19:45;;;;;;;0.90;0.60;;;;;;;;;;4938660;29;20798;-65
2023/01/16 02:22:23;;;;;;;1.33;0.50;;;;;;;;;;4938300;29;20424;-65
2023/01/16 02:25:08;;;;;;;0.60;0.60;;;;;;;;;;4938076;29;20415;-65
2023/01/16 02:27:57;;;;;;;0.50;0.50;;;;;;;;;;4938175;29;20431;-65
2023/01/16 02:30:26;;;;;;;2.03;0.70;;;;;;;;;;4918762;29;20487;-65
2023/01/16 02:32:52;;;;;;;0.40;0.40;;;;;;;;;;4937751;29;20419;-65
2023/01/16 02:35:27;;;;;;;0.80;0.50;;;;;;;;;;4938114;29;20435;-65
2023/01/16 02:37:59;;;;;;;0.50;0.50;;;;;;;;;;4938093;29;20399;-66
2023/01/16 02:40:35;;;;;;;2.00;0.50;;;;;;;;;;4937741;29;20435;-65
2023/01/16 02:43:01;;;;;;;0.50;0.50;;;;;;;;;;4938117;29;20406;-66
2023/01/16 02:45:39;;;;;;;0.50;0.50;;;;;;;;;;4937717;29;20777;-65
2023/01/16 02:48:11;;;;;;;1.10;0.60;;;;;;;;;;4937825;29;20424;-65
2023/01/16 02:50:52;;;;;;;1.00;0.60;;;;;;;;;;4937589;29;20475;-65
2023/01/16 02:53:23;;;;;;;1.23;0.30;;;;;;;;;;4937968;29;20404;-65
2023/01/16 02:56:02;;;;;;;0.40;0.40;;;;;;;;;;4938044;29;20423;-65
2023/01/16 02:58:29;;;;;;;1.13;0.50;;;;;;;;;;4937781;29;20771;-65
2023/01/16 03:00:57;;;;;;;0.53;0.53;;;;;;;;;;4937701;29;20424;-65
2023/01/16 03:03:26;;;;;;;0.50;0.50;;;;;;;;;;4937642;29;20432;-65
2023/01/16 03:05:57;;;;;;;1.63;0.50;;;;;;;;;;4920055;29;20767;-65
2023/01/16 03:08:36;;;;;;;1.23;0.60;;;;;;;;;;4937481;29;20420;-65
2023/01/16 03:11:02;;;;;;;0.97;0.50;;;;;;;;;;4937451;29;20932;-65
2023/01/16 03:13:49;;;;;;;1.40;0.80;;;;;;;;;;4937514;29;20424;-65
2023/01/16 03:16:38;;;;;;;0.40;0.40;;;;;;;;;;4937472;29;20479;-65
2023/01/16 03:19:07;;;;;;;1.33;0.70;;;;;;;;;;4917148;29;20794;-65
2023/01/16 03:21:43;;;;;;;0.50;0.40;;;;;;;;;;4937073;29;20959;-65
2023/01/16 03:24:27;;;;;;;0.43;0.40;;;;;;;;;;4937318;29;20876;-65
2023/01/16 03:27:22;;;;;;;1.00;0.87;;;;;;;;;;4938295;29;20428;-65
2023/01/16 03:29:53;;;;;;;0.43;0.43;;;;;;;;;;4928127;29;20903;-65
2023/01/16 03:32:37;;;;;;;1.40;0.47;;;;;;;;;;4937666;29;20464;-65
2023/01/16 03:35:09;;;;;;;0.30;0.30;;;;;;;;;;4937133;29;20456;-65
2023/01/16 03:37:55;;;;;;;0.70;0.70;;;;;;;;;;4937074;29;20396;-65
2023/01/16 03:40:27;;;;;;;0.77;0.40;;;;;;;;;;4936362;29;20420;-65
2023/01/16 03:42:56;;;;;;;0.50;0.50;;;;;;;;;;4936682;29;20490;-65
2023/01/16 03:45:42;;;;;;;0.43;0.43;;;;;;;;;;4936856;29;20424;-66
2023/01/16 03:48:14;;;;;;;0.50;0.50;;;;;;;;;;4936455;29;20916;-65
2023/01/16 03:50:43;;;;;;;1.03;0.43;;;;;;;;;;4936488;29;20959;-65
2023/01/16 03:53:11;;;;;;;0.37;0.37;;;;;;;;;;4936579;29;20431;-65
2023/01/16 03:55:51;;;;;;;0.50;0.50;;;;;;;;;;4936776;29;20404;-65
2023/01/16 03:58:24;;;;;;;0.30;0.30;;;;;;;;;;4936982;29;20495;-66
2023/01/16 04:00:57;;;;;;;1.50;1.50;;;;;;;;;;4936666;29;20455;-65
2023/01/16 04:03:28;;;;;;;1.13;0.40;;;;;;;;;;4936362;29;20404;-65
2023/01/16 04:06:08;;;;;;;4.73;0.80;;;;;;;;;;4936344;29;20900;-66
2023/01/16 04:08:35;;;;;;;2.97;0.67;;;;;;;;;;4936494;29;20518;-65
2023/01/16 04:11:02;;;;;;;1.80;0.80;;;;;;;;;;4936070;29;21050;-65
2023/01/16 04:13:30;;;;;;;1.90;1.27;;;;;;;;;;4936817;29;20519;-65
2023/01/16 04:15:57;;;;;;;1.53;0.40;;;;;;;;;;4936420;29;20423;-65
2023/01/16 04:18:25;;;;;;;1.03;0.73;;;;;;;;;;4936387;29;20420;-65
2023/01/16 04:20:51;;;;;;;0.70;0.67;;;;;;;;;;4936568;29;20428;-65
2023/01/16 04:23:17;;;;;;;0.40;0.40;;;;;;;;;;4936434;29;20987;-65
2023/01/16 04:25:45;;;;;;;0.40;0.40;;;;;;;;;;4936081;29;20451;-65
2023/01/16 04:28:11;;;;;;;0.50;0.50;;;;;;;;;;4936262;29;20420;-66
2023/01/16 04:30:37;;;;;;;0.50;0.50;;;;;;;;;;4935974;29;20482;-65
2023/01/16 04:33:04;;;;;;;0.67;0.50;;;;;;;;;;4936814;29;20462;-65
2023/01/16 04:35:30;;;;;;;0.40;0.40;;;;;;;;;;4936246;29;20879;-66
2023/01/16 04:37:56;;;;;;;0.33;0.33;;;;;;;;;;4936218;29;20911;-65
2023/01/16 04:40:22;;;;;;;2.30;1.40;;;;;;;;;;4936362;29;20420;-65
2023/01/16 04:45:52;;;;;;;0.53;0.53;;;;;;;;;;4935924;29;20443;-65
2023/01/16 04:48:18;;;;;;;0.50;0.50;;;;;;;;;;4935843;29;20776;-65
2023/01/16 04:50:44;;;;;;;0.80;0.60;;;;;;;;;;4935778;29;20480;-65
2023/01/16 04:53:09;;;;;;;0.40;0.40;;;;;;;;;;4935848;29;20422;-65
2023/01/16 04:55:35;;;;;;;0.77;0.60;;;;;;;;;;4939109;29;20424;-65
2023/01/16 04:58:01;;;;;;;0.93;0.70;;;;;;;;;;4939683;29;20423;-65
2023/01/16 05:00:27;;;;;;;0.33;0.33;;;;;;;;;;4940157;29;20435;-65
2023/01/16 05:02:53;;;;;;;0.43;0.43;;;;;;;;;;4939916;29;20423;-65
2023/01/16 05:05:19;;;;;;;0.77;0.53;;;;;;;;;;4939587;29;20801;-65
2023/01/16 05:07:45;;;;;;;0.77;0.77;;;;;;;;;;4939398;29;20499;-65
2023/01/16 05:10:11;;;;;;;0.40;0.40;;;;;;;;;;4939429;29;20570;-65
2023/01/16 05:12:37;;;;;;;0.30;0.30;;;;;;;;;;4939584;29;20416;-65
2023/01/16 05:15:03;;;;;;;2.60;0.60;;;;;;;;;;4940059;29;21003;-65
2023/01/16 05:17:29;;;;;;;0.90;0.40;;;;;;;;;;4939483;29;20471;-65
2023/01/16 05:19:55;;;;;;;1.23;0.40;;;;;;;;;;4939304;29;20412;-65
2023/01/16 05:22:21;;;;;;;0.97;0.50;;;;;;;;;;4922306;29;20467;-65
2023/01/16 05:24:47;;;;;;;2.60;0.40;;;;;;;;;;4939593;29;20462;-65
2023/01/16 05:27:13;;;;;;;0.37;0.37;;;;;;;;;;4939135;29;20423;-65
2023/01/16 05:29:39;;;;;;;0.30;0.30;;;;;;;;;;4939337;29;20528;-65
2023/01/16 05:32:05;;;;;;;0.43;0.43;;;;;;;;;;4939176;29;20523;-65
2023/01/16 05:34:31;;;;;;;0.50;0.50;;;;;;;;;;4939095;29;20427;-65
2023/01/16 05:36:57;;;;;;;0.30;0.30;;;;;;;;;;4939676;29;20534;-65
2023/01/16 05:39:23;;;;;;;0.63;0.63;;;;;;;;;;4938941;29;20789;-65
2023/01/16 05:41:49;;;;;;;0.80;0.50;;;;;;;;;;4938951;29;20423;-65
2023/01/16 05:44:15;;;;;;;0.40;0.40;;;;;;;;;;4938926;29;20420;-65
2023/01/16 05:46:41;;;;;;;1.13;0.67;;;;;;;;;;4939206;29;20423;-65
2023/01/16 05:49:07;;;;;;;0.60;0.60;;;;;;;;;;4938879;29;20837;-65
2023/01/16 05:51:33;;;;;;;0.57;0.50;;;;;;;;;;4938701;29;20562;-66
2023/01/16 05:53:58;;;;;;;0.43;0.43;;;;;;;;;;4938762;29;20849;-65
2023/01/16 05:56:25;;;;;;;0.40;0.40;;;;;;;;;;4938736;29;20447;-65
2023/01/16 05:58:51;;;;;;;1.17;0.77;;;;;;;;;;4938632;29;20930;-65
2023/01/16 06:01:17;;;;;;;0.60;0.60;;;;;;;;;;4938619;29;20412;-66
2023/01/16 06:03:43;;;;;;;1.07;0.60;;;;;;;;;;4921499;29;20435;-65
2023/01/16 06:06:09;;;;;;;0.60;0.60;;;;;;;;;;4938671;29;20463;-65
2023/01/16 06:08:35;;;;;;;0.87;0.73;;;;;;;;;;4938499;29;20756;-65
2023/01/16 06:11:01;;;;;;;3.37;0.70;;;;;;;;;;4938329;29;20479;-65
2023/01/16 06:13:27;;;;;;;1.13;0.73;;;;;;;;;;4938448;29;20431;-66
2023/01/16 06:15:53;;;;;;;0.53;0.50;;;;;;;;;;4938912;29;20897;-67
2023/01/16 06:18:19;;;;;;;5.33;0.73;;;;;;;;;;4938342;29;20781;-65
2023/01/16 06:20:45;;;;;;;2.30;0.80;;;;;;;;;;4922141;29;20436;-66
2023/01/16 06:23:11;;;;;;;0.90;0.90;;;;;;;;;;4938419;29;20797;-65
2023/01/16 06:25:37;;;;;;;0.60;0.60;;;;;;;;;;4938211;29;20459;-66
2023/01/16 06:28:03;;;;;;;4.20;0.70;;;;;;;;;;4938336;29;20454;-65
2023/01/16 06:30:29;;;;;;;0.40;0.40;;;;;;;;;;4938360;29;20471;-65
2023/01/16 06:32:55;;;;;;;0.40;0.40;;;;;;;;;;4938345;29;20420;-65
2023/01/16 06:35:21;;;;;;;0.80;0.80;;;;;;;;;;4937948;29;20432;-65
2023/01/16 06:37:47;;;;;;;0.80;0.50;;;;;;;;;;4939141;29;20426;-65
2023/01/16 06:40:13;;;;;;;4.43;0.53;;;;;;;;;;4937837;29;20427;-65
2023/01/16 06:42:39;;;;;;;0.67;0.67;;;;;;;;;;4937893;29;20449;-65
2023/01/16 06:45:05;;;;;;;0.60;0.50;;;;;;;;;;4921967;29;20432;-65
2023/01/16 06:47:31;;;;;;;0.80;0.80;;;;;;;;;;4937779;29;20491;-66
2023/01/16 06:49:57;;;;;;;0.70;0.70;;;;;;;;;;4937315;29;20853;-66
2023/01/16 06:52:23;;;;;;;0.40;0.40;;;;;;;;;;4937556;29;20430;-66
2023/01/16 06:54:49;;;;;;;0.60;0.60;;;;;;;;;;4920556;29;20420;-66
2023/01/16 06:57:15;;;;;;;4.33;0.50;;;;;;;;;;4937785;29;20463;-65
2023/01/16 06:59:41;;;;;;;1.50;0.33;;;;;;;;;;4920367;29;20438;-65
2023/01/16 07:02:08;;;;;;;0.63;0.63;;;;;;;;;;4937786;29;20431;-67
2023/01/16 07:04:34;;;;;;;19.90;1.37;;;;;;;;;;4937404;29;20427;-68
2023/01/16 07:07:00;;;;;;;7.40;0.80;;;;;;;;;;4937135;29;20960;-67
2023/01/16 07:09:29;;;;;;;2.00;0.70;;;;;;;;;;4937492;29;20577;-67
2023/01/16 07:11:55;;;;;;;2.57;1.07;;;;;;;;;;4937055;29;20982;-66
2023/01/16 07:22:37;;;;;;;0.30;0.30;;;;;;;;;;4937677;29;20456;-67
2023/01/16 07:25:05;;;;;;;0.40;0.40;;;;;;;;;;4937006;29;20424;-66
2023/01/16 07:27:31;;;;;;;6.73;0.50;;;;;;;;;;4936977;29;20420;-68
2023/01/16 07:29:58;;;;;;;0.63;0.63;;;;;;;;;;4936673;29;20459;-69
2023/01/16 07:32:24;;;;;;;0.83;0.83;;;;;;;;;;4937219;29;20427;-71
2023/01/16 07:34:50;;;;;;;0.60;0.60;;;;;;;;;;4936890;29;20782;-70
2023/01/16 07:37:16;;;;;;;0.80;0.80;;;;;;;;;;4937024;29;20482;-69
2023/01/16 07:39:42;;;;;;;0.73;0.73;;;;;;;;;;4937105;29;20424;-68
2023/01/16 07:42:08;;;;;;;0.40;0.40;;;;;;;;;;4936697;29;20490;-66
2023/01/16 07:44:34;;;;;;;0.40;0.40;;;;;;;;;;4936637;29;20431;-66
2023/01/16 07:47:01;;;;;;;0.30;0.30;;;;;;;;;;4937199;29;20426;-66
2023/01/16 07:49:27;;;;;;;0.30;0.30;;;;;;;;;;4936683;29;20519;-68
2023/01/16 07:51:53;;;;;;;0.63;0.50;;;;;;;;;;4936484;29;20561;-66
2023/01/16 07:54:21;;;;;;;2.93;0.63;;;;;;;;;;4936441;29;20803;-66
2023/01/16 07:56:47;;;;;;;0.30;0.30;;;;;;;;;;4936420;29;20486;-66
2023/01/16 07:59:13;;;;;;;0.33;0.33;;;;;;;;;;4936567;29;20416;-66
2023/01/16 08:01:39;;;;;;;0.40;0.40;;;;;;;;;;4936567;29;20455;-66
2023/01/16 08:04:05;;;;;;;0.30;0.30;;;;;;;;;;4936121;29;20419;-67
2023/01/16 08:06:31;;;;;;;0.40;0.40;;;;;;;;;;4936139;29;20506;-66
2023/01/16 08:08:57;;;;;;;0.50;0.50;;;;;;;;;;4919023;29;20471;-66
2023/01/16 08:11:35;;;;;;;0.30;0.30;;;;;;;;;;4936222;29;20523;-67
2023/01/16 08:14:01;;;;;;;1.33;0.30;;;;;;;;;;4936247;29;20880;-66
2023/01/16 08:16:27;;;;;;;1.07;0.30;;;;;;;;;;4936527;29;20428;-66
2023/01/16 08:18:53;;;;;;;0.30;0.30;;;;;;;;;;4936151;29;20422;-66
2023/01/16 08:21:19;;;;;;;10.90;0.60;;;;;;;;;;4936614;29;20424;-65
2023/01/16 08:23:45;;;;;;;0.33;0.33;;;;;;;;;;4936053;29;20420;-65
2023/01/16 08:26:11;;;;;;;1.80;0.40;;;;;;;;;;4935814;29;20975;-68
2023/01/16 08:28:37;;;;;;;0.50;0.50;;;;;;;;;;4935143;29;20428;-67
2023/01/16 08:31:07;;;;;;;0.40;0.40;;;;;;;;;;4936157;29;20488;-66
2023/01/16 08:33:33;;;;;;;0.77;0.77;;;;;;;;;;4936293;29;20448;-66
2023/01/16 08:35:59;;;;;;;4.33;2.40;;;;;;;;;;4936002;29;20419;-65
2023/01/16 08:38:25;;;;;;;3.47;0.80;;;;;;;;;;4935840;29;20423;-66
2023/01/16 08:40:51;;;;;;;2.03;0.63;;;;;;;;;;4935889;29;20474;-65
2023/01/16 08:51:32;;;;;;;0.90;0.90;;;;;;;;;;4935734;29;20483;-70
2023/01/16 08:53:58;;;;;;;0.50;0.50;;;;;;;;;;4935752;29;20470;-67
2023/01/16 08:56:24;;;;;;;1.07;1.07;;;;;;;;;;4935722;29;20506;-67
2023/01/16 08:58:50;;;;;;;25.17;1.43;;;;;;;;;;4935658;29;20420;-66
2023/01/16 09:01:17;;;;;;;0.47;0.47;;;;;;;;;;4935931;29;20455;-66
2023/01/16 09:03:43;;;;;;;0.30;0.30;;;;;;;;;;4919348;29;20903;-66
2023/01/16 09:06:09;;;;;;;0.50;0.50;;;;;;;;;;4935394;29;20471;-67
2023/01/16 09:08:35;;;;;;;0.30;0.30;;;;;;;;;;4935755;29;20503;-68
2023/01/16 09:13:49;;;;;;;0.40;0.40;;;;;;;;;;4935839;29;20403;-66
2023/01/16 09:16:19;;;;;;;0.40;0.40;;;;;;;;;;4935732;29;20835;-66
2023/01/16 09:18:48;;;;;;;0.40;0.40;;;;;;;;;;4935290;29;20430;-66
2023/01/16 09:21:14;;;;;;;0.53;0.40;;;;;;;;;;4935885;29;20505;-66
2023/01/16 09:23:40;;;;;;;0.30;0.30;;;;;;;;;;4936492;29;20431;-64
2023/01/16 09:26:06;;;;;;;0.30;0.30;;;;;;;;;;4935348;29;20870;-66
2023/01/16 09:28:33;;;;;;;0.30;0.30;;;;;;;;;;4935349;29;20527;-65
2023/01/16 09:30:59;;;;;;;0.30;0.30;;;;;;;;;;4935176;29;20486;-69
2023/01/16 09:33:25;;;;;;;0.40;0.40;;;;;;;;;;4935209;29;20448;-65
2023/01/16 09:35:51;;;;;;;0.50;0.50;;;;;;;;;;4935235;29;20999;-66
2023/01/16 09:38:17;;;;;;;1.50;0.40;;;;;;;;;;4935429;29;20495;-68
2023/01/16 09:40:49;;;;;;;1.37;0.50;;;;;;;;;;4937107;29;20427;-66
2023/01/16 09:43:35;;;;;;;1.50;0.30;;;;;;;;;;4939412;29;20446;-65
2023/01/16 09:46:21;;;;;;;0.30;0.30;;;;;;;;;;4938726;29;20462;-65
2023/01/16 09:49:03;;;;;;;0.30;0.30;;;;;;;;;;4938775;29;20470;-65
2023/01/16 09:51:31;;;;;;;0.30;0.30;;;;;;;;;;4938647;29;20475;-65
2023/01/16 09:59:31;;;;;;;1.60;0.30;;;;;;;;;;4938968;29;20432;-64
2023/01/16 10:02:05;;;;;;;0.40;0.40;;;;;;;;;;4938561;29;20420;-64
2023/01/16 10:04:32;;;;;;;2.30;0.30;;;;;;;;;;4938904;29;20545;-65
2023/01/16 10:07:10;;;;;;;0.30;0.30;;;;;;;;;;4938354;29;20826;-65
2023/01/16 10:09:39;;;;;;;0.60;0.33;;;;;;;;;;4938748;29;20494;-65
2023/01/16 10:12:09;;;;;;;0.67;0.30;;;;;;;;;;4938410;29;20475;-65
2023/01/16 10:14:49;;;;;;;1.80;0.50;;;;;;;;;;4938534;29;20415;-65
2023/01/16 10:17:42;;;;;;;0.30;0.30;;;;;;;;;;4938586;29;20420;-65
2023/01/16 10:20:11;;;;;;;0.20;0.20;;;;;;;;;;4936593;29;20463;-67
2023/01/16 10:22:37;;;;;;;0.30;0.30;;;;;;;;;;4938454;29;20499;-65
2023/01/16 10:25:12;;;;;;;0.57;0.57;;;;;;;;;;4938014;29;20452;-65
2023/01/16 10:27:57;;;;;;;0.30;0.30;;;;;;;;;;4938349;29;20396;-65
2023/01/16 10:30:28;;;;;;;0.30;0.30;;;;;;;;;;4937975;29;20554;-65
2023/01/16 10:33:00;;;;;;;0.30;0.30;;;;;;;;;;4938039;29;20565;-65
2023/01/16 10:35:30;;;;;;;2.40;0.30;;;;;;;;;;4937865;29;20928;-65
2023/01/16 10:37:59;;;;;;;0.30;0.30;;;;;;;;;;4938069;29;20459;-59
2023/01/16 10:40:27;;;;;;;0.30;0.30;;;;;;;;;;4938325;29;20424;-64
2023/01/16 10:51:15;;;;;;;5.47;0.30;;;;;;;;;;4937274;29;20530;-70
2023/01/16 10:53:42;;;;;;;0.30;0.30;;;;;;;;;;4937120;29;20428;-70
2023/01/16 10:56:08;;;;;;;0.70;0.70;;;;;;;;;;4937458;29;20432;-69
2023/01/16 10:58:35;;;;;;;0.30;0.30;;;;;;;;;;4937570;29;20424;-66
2023/01/16 11:01:23;;;;;;;0.30;0.30;;;;;;;;;;4937392;29;20515;-67
2023/01/16 11:07:12;;;;;;;0.80;0.80;;;;;;;;;;4937124;29;20824;-65
2023/01/16 11:09:39;;;;;;;85.83;40.27;;;;;;;;;;4937379;29;20435;-69
2023/01/16 11:20:39;;;;;;;84.10;35.83;;;;;;;;;;4937553;29;20443;-65
2023/01/16 11:23:05;;;;;;;31.93;13.70;;;;;;;;;;4937014;29;20789;-64
2023/01/16 11:25:32;;;;;;;3.40;3.30;;;;;;;;;;4937542;29;20896;-65
2023/01/16 11:28:02;;;;;;;2.30;2.20;;;;;;;;;;4936864;29;20503;-66
2023/01/16 11:30:29;;;;;;;9.37;8.07;;;;;;;;;;4937461;29;20475;-65
2023/01/16 11:32:57;;;;;;;6.37;4.50;;;;;;;;;;4937333;29;20427;-65
2023/01/16 11:35:25;;;;;;;6.80;4.90;;;;;;;;;;4937067;29;20416;-65
2023/01/16 11:37:53;;;;;;;3.57;2.73;;;;;;;;;;4936842;29;20522;-66
2023/01/16 11:40:21;;;;;;;2.43;2.40;;;;;;;;;;4937085;29;20424;-66
2023/01/16 11:46:02;;;;;;;8.10;5.37;;;;;;;;;;4936657;29;20427;-65
2023/01/16 11:48:28;;;;;;;13.20;9.23;;;;;;;;;;4936540;29;20528;-65
2023/01/16 11:50:58;;;;;;;10.67;9.60;;;;;;;;;;4936474;29;20538;-65
2023/01/16 11:53:30;;;;;;;2.33;2.27;;;;;;;;;;4936872;29;20923;-67
2023/01/16 11:56:31;;;;;;;2.30;2.30;;;;;;;;;;4936724;29;20762;-65
2023/01/16 11:59:15;;;;;;;1.27;1.27;;;;;;;;;;4915517;29;20431;-66
2023/01/16 12:04:38;;;;;;;1.20;1.20;;;;;;;;;;4936247;29;20467;-68
2023/01/16 12:07:17;;;;;;;0.60;0.60;;;;;;;;;;4936174;29;20566;-65
2023/01/16 12:09:51;;;;;;;0.87;0.87;;;;;;;;;;4936087;29;20416;-65
2023/01/16 12:15:23;;;;;;;1.30;1.30;;;;;;;;;;4936252;29;20426;-69
2023/01/16 12:18:08;;;;;;;0.83;0.83;;;;;;;;;;4936407;29;20425;-67
2023/01/16 12:20:54;;;;;;;2.00;1.33;;;;;;;;;;4936316;29;20452;-67
2023/01/16 12:23:30;;;;;;;3.97;3.33;;;;;;;;;;4936369;29;20424;-67
2023/01/16 12:26:10;;;;;;;1.90;1.80;;;;;;;;;;4936347;29;20411;-67
2023/01/16 12:28:36;;;;;;;0.80;0.80;;;;;;;;;;4936379;29;20792;-67
2023/01/16 12:31:16;;;;;;;2.00;0.80;;;;;;;;;;4935530;29;20479;-65
2023/01/16 12:33:48;;;;;;;0.50;0.50;;;;;;;;;;4918556;29;20985;-65
2023/01/16 12:36:17;;;;;;;0.40;0.40;;;;;;;;;;4935968;29;20419;-67
2023/01/16 12:38:48;;;;;;;0.53;0.50;;;;;;;;;;4935722;29;20436;-67
2023/01/16 12:44:28;;;;;;;0.30;0.30;;;;;;;;;;4858963;29;20491;-64
2023/01/16 12:47:03;;;;;;;0.47;0.30;;;;;;;;;;4858994;29;20540;-66
2023/01/16 12:49:41;;;;;;;0.30;0.30;;;;;;;;;;4902712;29;20937;-65
2023/01/16 12:52:14;;;;;;;1.90;1.50;;;;;;;;;;4935651;29;20486;-65
2023/01/16 12:54:51;;;;;;;2.20;2.00;;;;;;;;;;4935750;29;20407;-65
2023/01/16 12:57:27;;;;;;;0.30;0.30;;;;;;;;;;4935459;29;20787;-69
2023/01/16 13:00:05;;;;;;;0.40;0.40;;;;;;;;;;4935603;29;20407;-66
2023/01/16 13:02:43;;;;;;;0.57;0.57;;;;;;;;;;4935673;29;20431;-66
2023/01/16 13:05:18;;;;;;;0.30;0.30;;;;;;;;;;4935622;29;20411;-66
2023/01/16 13:07:57;;;;;;;0.33;0.33;;;;;;;;;;4935126;29;20498;-65
2023/01/16 13:13:22;;;;;;;0.40;0.40;;;;;;;;;;4935598;29;20396;-66
2023/01/16 13:15:50;;;;;;;0.30;0.30;;;;;;;;;;4937550;29;20779;-67
2023/01/16 13:18:35;;;;;;;0.37;0.37;;;;;;;;;;4938943;29;20503;-65
2023/01/16 13:21:03;;;;;;;0.30;0.30;;;;;;;;;;4939312;29;20875;-66
2023/01/16 13:23:33;;;;;;;0.30;0.30;;;;;;;;;;4938861;29;20789;-66
2023/01/16 13:26:02;;;;;;;0.40;0.40;;;;;;;;;;4921806;29;20514;-69
2023/01/16 13:28:30;;;;;;;0.40;0.40;;;;;;;;;;4939108;29;20787;-65
2023/01/16 13:31:00;;;;;;;0.30;0.30;;;;;;;;;;4938823;29;20476;-68
2023/01/16 13:33:28;;;;;;;1.57;1.57;;;;;;;;;;4938771;29;20518;-65
2023/01/16 13:35:54;;;;;;;2.87;2.77;;;;;;;;;;4938675;29;20483;-66
2023/01/16 13:38:30;;;;;;;1.30;1.20;;;;;;;;;;4938867;29;20483;-66
2023/01/16 13:41:15;;;;;;;0.70;0.70;;;;;;;;;;4939295;29;20419;-67
2023/01/16 13:46:46;;;;;;;0.40;0.40;;;;;;;;;;4936781;29;20442;-66
2023/01/16 13:49:17;;;;;;;0.67;0.67;;;;;;;;;;4938948;29;20978;-66
2023/01/16 13:51:44;;;;;;;0.50;0.50;;;;;;;;;;4921929;29;20504;-66
2023/01/16 13:54:14;;;;;;;0.77;0.77;;;;;;;;;;4938684;29;20432;-65
2023/01/16 13:56:40;;;;;;;0.80;0.80;;;;;;;;;;4938911;29;20404;-65
2023/01/16 13:59:26;;;;;;;2.47;0.43;;;;;;;;;;4921372;29;20494;-65
2023/01/16 14:01:56;;;;;;;0.50;0.50;;;;;;;;;;4938453;29;20440;-65
2023/01/16 14:04:23;;;;;;;1.30;1.20;;;;;;;;;;4938367;29;20487;-65
2023/01/16 14:10:12;;;;;;;0.40;0.40;;;;;;;;;;4938138;29;20930;-66
2023/01/16 14:13:00;;;;;;;0.50;0.50;;;;;;;;;;4939005;29;20412;-66
2023/01/16 14:18:37;;;;;;;0.40;0.40;;;;;;;;;;4938537;29;20956;-65
2023/01/16 14:21:04;;;;;;;0.60;0.60;;;;;;;;;;4938140;29;20506;-66
2023/01/16 14:26:18;;;;;;;0.50;0.50;;;;;;;;;;4938517;29;20512;-65
2023/01/16 14:28:47;;;;;;;0.50;0.50;;;;;;;;;;4920982;29;20455;-65
2023/01/16 14:31:21;;;;;;;1.03;0.67;;;;;;;;;;4938022;29;20479;-65
2023/01/16 14:33:47;;;;;;;0.60;0.60;;;;;;;;;;4937939;29;20541;-68
2023/01/16 14:36:14;;;;;;;2.00;0.60;;;;;;;;;;4937801;29;20763;-65
2023/01/16 14:38:45;;;;;;;0.70;0.70;;;;;;;;;;4937961;29;20925;-65
2023/01/16 14:55:53;;;;;;;0.43;0.40;;;;;;;;;;4937560;29;20439;-65
2023/01/16 14:58:31;;;;;;;1.13;0.57;;;;;;;;;;4937367;29;20883;-65
2023/01/16 15:02:18;;;;;;;1.07;1.07;;;;;;;;;;4937397;29;20911;-66
2023/01/16 15:03:44;;;;;;;1.30;0.80;;;;;;;;;;4937339;29;20959;-67
2023/01/16 15:06:11;;;;;;;3.80;0.50;;;;;;;;;;4937366;29;20472;-65
2023/01/16 15:08:41;;;;;;;0.30;0.30;;;;;;;;;;4937926;29;20423;-70
2023/01/16 15:22:47;;;;;;;2.40;1.33;;;;;;;;;;4937456;29;20417;-64
2023/01/16 15:25:35;;;;;;;0.70;0.70;;;;;;;;;;4937969;29;20427;-67
2023/01/16 15:28:04;;;;;;;0.80;0.80;;;;;;;;;;4936809;29;20912;-66
2023/01/16 15:30:30;;;;;;;1.03;1.03;;;;;;;;;;4936928;29;20486;-67
2023/01/16 15:33:43;;;;;;;1.33;0.50;;;;;;;;;;4937029;29;20529;-66
2023/01/16 15:35:43;;;;;;;0.90;0.53;;;;;;;;;;4936605;29;20423;-66
2023/01/16 15:38:11;;;;;;;0.83;0.67;;;;;;;;;;4936683;29;20419;-66
2023/01/16 15:40:39;;;;;;;2.90;2.70;;;;;;;;;;4937387;29;20416;-66
2023/01/16 15:48:56;;;;;;;0.70;0.70;;;;;;;;;;4936703;29;20403;-64
2023/01/16 15:51:22;;;;;;;1.60;0.90;;;;;;;;;;4936400;29;20471;-66
2023/01/16 15:53:53;;;;;;;0.63;0.63;;;;;;;;;;4919872;29;20427;-65
2023/01/16 15:56:23;;;;;;;0.90;0.60;;;;;;;;;;4936342;29;20420;-65
2023/01/16 15:58:52;;;;;;;1.50;0.73;;;;;;;;;;4936660;29;20415;-66
2023/01/16 16:01:25;;;;;;;0.50;0.50;;;;;;;;;;4936349;29;20420;-65
2023/01/16 16:03:51;;;;;;;1.65;0.70;;;;;;;;;;4936284;29;20409;-67
2023/01/16 16:06:19;;;;;;;0.50;0.50;;;;;;;;;;4936309;29;20715;-65
2023/01/16 16:08:54;;;;;;;0.47;0.47;;;;;;;;;;4936581;29;20415;-70
2023/01/16 16:20:38;;;;;;;0.67;0.67;;;;;;;;;;4936683;29;20412;-66
2023/01/16 16:23:10;;;;;;;0.70;0.70;;;;;;;;;;4936716;29;20416;-70
2023/01/16 16:25:37;;;;;;;0.70;0.70;;;;;;;;;;4936440;29;20515;-66
2023/01/16 16:28:16;;;;;;;0.83;0.83;;;;;;;;;;4936016;29;20915;-65
2023/01/16 16:30:42;;;;;;;0.50;0.50;;;;;;;;;;4936369;29;20638;-65
2023/01/16 16:33:16;;;;;;;0.63;0.63;;;;;;;;;;4936035;29;20420;-66
2023/01/16 16:35:46;;;;;;;1.10;0.73;;;;;;;;;;4935972;29;20912;-65
2023/01/16 16:38:26;;;;;;;0.60;0.60;;;;;;;;;;4935993;29;20403;-64
2023/01/16 16:41:21;;;;;;;1.20;1.10;;;;;;;;;;4936117;29;20473;-64
2023/01/16 16:43:55;;;;;;;2.00;0.67;;;;;;;;;;4918592;29;20824;-66
2023/01/16 16:46:27;;;;;;;1.70;0.60;;;;;;;;;;4935812;29;20419;-64
2023/01/16 16:48:57;;;;;;;0.63;0.53;;;;;;;;;;4935751;29;20415;-64
2023/01/16 16:51:32;;;;;;;1.10;0.90;;;;;;;;;;4935043;29;20472;-64
2023/01/16 16:54:18;;;;;;;0.90;0.90;;;;;;;;;;4935641;29;20473;-65
2023/01/16 16:56:53;;;;;;;0.93;0.57;;;;;;;;;;4935998;29;20442;-64
2023/01/16 16:59:24;;;;;;;1.37;0.80;;;;;;;;;;4935912;29;20434;-64